This is the latest recevied weather packets stored in our database for station/object K4TH. If no packets are shown the sender has not sent any weather packets the latest 1 day(s).
| Time | Temp. | Humidity | Pressure | Rain* | Wind** | Luminosity | Snow |
|---|---|---|---|---|---|---|---|
| 1777991829 | 21.11° C | 70% | 1015.1 hPa | 0 mm | 0 m/s | 34 W/m² | - |
| 1777991526 | 21.11° C | 72% | 1015.2 hPa | 0 mm | 0.89 m/s, 47° | 71 W/m² | - |
| 1777991223 | 20.56° C | 73% | 1015.1 hPa | 0 mm | 0.45 m/s, 59° | 43 W/m² | - |
| 1777990920 | 20.56° C | 73% | 1015.1 hPa | 0 mm | 0.89 m/s, 71° | 274 W/m² | - |
| 1777990618 | 20° C | 72% | 1014.9 hPa | 0 mm | 0.45 m/s, 56° | 54 W/m² | - |
| 1777990315 | 20° C | 76% | 1015.2 hPa | 0 mm | 0.45 m/s, 48° | 36 W/m² | - |
| 1777990011 | 20° C | 74% | 1015 hPa | 0 mm | 0 m/s | 32 W/m² | - |
| 1777989708 | 20° C | 74% | 1015 hPa | 0 mm | 0 m/s | 24 W/m² | - |
| 1777989404 | 19.44° C | 77% | 1014.9 hPa | 0 mm | 0 m/s | 32 W/m² | - |
| 1777989101 | 19.44° C | 76% | 1014.7 hPa | 0 mm | 0.89 m/s, 84° | 24 W/m² | - |
| 1777988796 | 19.44° C | 75% | 1014.9 hPa | 0 mm | 0 m/s | 26 W/m² | - |
| 1777988494 | 18.89° C | 78% | 1014.9 hPa | 0 mm | 0.89 m/s, 72° | 34 W/m² | - |
| 1777988191 | 18.89° C | 77% | 1014.7 hPa | 0 mm | 0.89 m/s, 69° | 23 W/m² | - |
| 1777987887 | 18.33° C | 78% | 1015 hPa | 0 mm | 0 m/s | 22 W/m² | - |
| 1777987583 | 18.33° C | 78% | 1014.8 hPa | 0 mm | 0 m/s | 63 W/m² | - |
| 1777987281 | 17.78° C | 78% | 1014.6 hPa | 0 mm | 0 m/s | 47 W/m² | - |
| 1777986977 | 17.78° C | 83% | 1014.7 hPa | 0 mm | 0 m/s | 22 W/m² | - |
| 1777986676 | 17.78° C | 83% | 1014.7 hPa | 0 mm | 0.45 m/s, 43° | 19 W/m² | - |
| 1777986373 | 17.22° C | 83% | 1014.6 hPa | 0 mm | 0.45 m/s, 39° | 19 W/m² | - |
| 1777986072 | 16.67° C | 87% | 1014.2 hPa | 0 mm | 0.45 m/s, 28° | 17 W/m² | - |
| 1777985768 | 16.67° C | 90% | 1014.5 hPa | 0 mm | 0 m/s | 35 W/m² | - |
| 1777985465 | 16.11° C | 90% | 1014.3 hPa | 0 mm | 0 m/s | 16 W/m² | - |
| 1777985161 | 16.11° C | 91% | 1014 hPa | 0 mm | 0 m/s | 16 W/m² | - |
| 1777984857 | 15.56° C | 92% | 1014.1 hPa | 0 mm | 0 m/s | 15 W/m² | - |
| 1777984554 | 15.56° C | 92% | 1014.3 hPa | 0 mm | 0 m/s | 15 W/m² | - |
* Rain latest hour (hover to see other rain measurements)
** Current wind speed in m/s (hover to see current wind gust speed)